Time;durP1;ratioP1;P1;durP2;ratioP2;P2;SDS_P1;SDS_P2;PMS_P1;PMS_P2;Temp;Humidity;BMP_temperature;BMP_pressure;BME280_temperature;BME280_humidity;BME280_pressure;Samples;Min_cycle;Max_cycle;Signal;HPM_P1;HPM_P2
2023/04/22 00:03:51;;;;;;;;;;;17.70;67.00;;;;;;10210985;28;93428;-66
2023/04/22 00:08:53;;;;;;;;;;;17.70;66.80;;;;;;10209298;28;94570;-66
2023/04/22 00:13:54;;;;;;;;;;;17.70;66.80;;;;;;10208512;28;94435;-66
2023/04/22 00:18:56;;;;;;;;;;;17.70;66.70;;;;;;10207563;28;93366;-66
2023/04/22 00:23:58;;;;;;;;;;;17.60;66.50;;;;;;10209496;28;92397;-66
2023/04/22 00:29:00;;;;;;;;;;;17.70;66.50;;;;;;10190624;28;93597;-65
2023/04/22 00:34:02;;;;;;;;;;;17.60;66.30;;;;;;10208568;28;94430;-67
2023/04/22 00:39:05;;;;;;;;;;;17.60;66.20;;;;;;10205326;28;95855;-66
2023/04/22 00:44:10;;;;;;;;;;;17.60;66.20;;;;;;10207063;28;93239;-65
2023/04/22 00:49:11;;;;;;;;;;;17.60;66.10;;;;;;10207630;28;94445;-67
2023/04/22 00:54:13;;;;;;;;;;;17.60;66.00;;;;;;10207084;28;93440;-66
2023/04/22 00:59:15;;;;;;;;;;;17.60;66.00;;;;;;10206694;28;93382;-66
2023/04/22 01:04:16;;;;;;;;;;;17.60;65.90;;;;;;10206812;28;93275;-66
2023/04/22 01:09:19;;;;;;;;;;;17.50;65.80;;;;;;10206833;28;93539;-65
2023/04/22 01:14:21;;;;;;;;;;;17.50;65.80;;;;;;10207977;28;94018;-66
2023/04/22 01:19:23;;;;;;;;;;;17.50;65.80;;;;;;10206615;28;94078;-66
2023/04/22 01:24:25;;;;;;;;;;;17.50;65.80;;;;;;10207612;28;93418;-66
2023/04/22 01:29:27;;;;;;;;;;;17.50;65.70;;;;;;10204249;28;96550;-66
2023/04/22 01:34:30;;;;;;;;;;;17.50;65.60;;;;;;10173450;28;94174;-65
2023/04/22 01:39:32;;;;;;;;;;;17.50;65.60;;;;;;10206622;28;93257;-66
2023/04/22 01:44:34;;;;;;;;;;;17.50;65.60;;;;;;10206148;28;92871;-66
2023/04/22 01:49:35;;;;;;;;;;;17.50;65.50;;;;;;10205555;28;93444;-67
2023/04/22 01:54:37;;;;;;;;;;;17.40;65.50;;;;;;10206404;28;92669;-67
2023/04/22 01:59:39;;;;;;;;;;;17.40;66.40;;;;;;10205959;28;93459;-66
2023/04/22 02:04:41;;;;;;;;;;;17.40;65.30;;;;;;10205807;28;93788;-67
2023/04/22 02:09:43;;;;;;;;;;;17.40;65.30;;;;;;10206233;28;93282;-66
2023/04/22 02:14:45;;;;;;;;;;;17.40;65.30;;;;;;10212737;28;94417;-67
2023/04/22 02:19:46;;;;;;;;;;;17.40;65.30;;;;;;10209260;28;95848;-66
2023/04/22 02:24:48;;;;;;;;;;;17.40;65.20;;;;;;10195246;28;94061;-66
2023/04/22 02:29:50;;;;;;;;;;;17.40;65.10;;;;;;10211700;28;93449;-65
2023/04/22 02:34:52;;;;;;;;;;;17.30;65.10;;;;;;10210426;28;94381;-66
2023/04/22 02:39:54;;;;;;;;;;;17.40;65.00;;;;;;10212447;28;93424;-65
2023/04/22 02:44:55;;;;;;;;;;;17.30;65.00;;;;;;10211070;28;93456;-65
2023/04/22 02:49:57;;;;;;;;;;;17.30;65.00;;;;;;10211028;28;93469;-66
2023/04/22 02:55:01;;;;;;;;;;;17.30;64.90;;;;;;10179524;28;92771;-66
2023/04/22 03:00:03;;;;;;;;;;;17.30;64.90;;;;;;10192772;28;93347;-66
2023/04/22 03:05:05;;;;;;;;;;;17.30;64.90;;;;;;10194030;28;93645;-66
2023/04/22 03:10:07;;;;;;;;;;;17.30;64.80;;;;;;10208227;28;95842;-65
2023/04/22 03:15:09;;;;;;;;;;;17.30;64.80;;;;;;10192517;28;93527;-65
2023/04/22 03:20:11;;;;;;;;;;;17.30;64.80;;;;;;10191571;28;94236;-65
2023/04/22 03:25:13;;;;;;;;;;;17.30;64.80;;;;;;10210160;28;94506;-66
2023/04/22 03:30:14;;;;;;;;;;;17.30;64.70;;;;;;10191652;28;94386;-65
2023/04/22 03:35:16;;;;;;;;;;;17.30;64.60;;;;;;10209797;28;94333;-66
2023/04/22 03:40:18;;;;;;;;;;;17.30;64.60;;;;;;10209002;28;93118;-65
2023/04/22 03:45:20;;;;;;;;;;;17.30;64.50;;;;;;10210004;28;92712;-66
2023/04/22 05:03:04;;;;;;;;;;;17.20;63.70;;;;;;10184327;28;95308;-64
2023/04/22 05:08:06;;;;;;;;;;;17.20;63.70;;;;;;10183527;28;96270;-66
2023/04/22 05:13:08;;;;;;;;;;;17.20;64.20;;;;;;10206356;28;93857;-65
2023/04/22 05:18:09;;;;;;;;;;;17.20;64.10;;;;;;10206118;28;94553;-66
2023/04/22 05:23:11;;;;;;;;;;;17.20;64.20;;;;;;10205746;28;92895;-65
2023/04/22 05:28:13;;;;;;;;;;;17.30;64.20;;;;;;10207406;28;93643;-65
2023/04/22 05:33:15;;;;;;;;;;;17.30;64.00;;;;;;10205651;28;94844;-66
2023/04/22 05:38:16;;;;;;;;;;;17.30;64.00;;;;;;10206464;28;94402;-65
2023/04/22 05:43:18;;;;;;;;;;;17.30;64.00;;;;;;10186992;28;94055;-65
2023/04/22 05:48:20;;;;;;;;;;;17.30;64.10;;;;;;10203876;28;93656;-66
2023/04/22 05:53:22;;;;;;;;;;;17.30;64.20;;;;;;10252979;28;93942;-65
2023/04/22 05:58:23;;;;;;;;;;;17.30;64.30;;;;;;10233310;28;96881;-66
2023/04/22 06:03:25;;;;;;;;;;;17.30;64.40;;;;;;10234671;28;93896;-61
2023/04/22 06:08:28;;;;;;;;;;;17.40;64.60;;;;;;10254770;28;93876;-60
2023/04/22 06:13:30;;;;;;;;;;;17.40;64.60;;;;;;10252768;28;95182;-60
2023/04/22 06:18:35;;;;;;;;;;;17.30;64.70;;;;;;10235240;28;94270;-60
2023/04/22 06:23:39;;;;;;;;;;;17.30;64.80;;;;;;10250432;28;93672;-60
2023/04/22 06:28:40;;;;;;;;;;;17.30;64.80;;;;;;10251844;28;93537;-64
2023/04/22 06:33:42;;;;;;;;;;;17.30;65.90;;;;;;10253350;28;94092;-60
2023/04/22 06:38:44;;;;;;;;;;;17.40;66.50;;;;;;10234677;28;94560;-61
2023/04/22 06:43:48;;;;;;;;;;;17.40;67.10;;;;;;10252292;28;94449;-60
2023/04/22 06:48:50;;;;;;;;;;;17.50;66.90;;;;;;10248670;28;95721;-61
2023/04/22 06:53:52;;;;;;;;;;;17.50;67.20;;;;;;10252196;28;93321;-60
2023/04/22 06:58:53;;;;;;;;;;;17.60;67.30;;;;;;10250595;28;93464;-60
2023/04/22 07:03:55;;;;;;;;;;;17.60;67.40;;;;;;10250277;28;93306;-60
2023/04/22 07:08:57;;;;;;;;;;;17.60;66.90;;;;;;10250314;28;94467;-60
2023/04/22 07:13:59;;;;;;;;;;;17.60;66.90;;;;;;10251128;28;94389;-60
2023/04/22 07:19:01;;;;;;;;;;;17.50;66.60;;;;;;10250912;28;93055;-60
2023/04/22 07:24:03;;;;;;;;;;;17.50;66.60;;;;;;10231809;28;92576;-60
2023/04/22 07:29:05;;;;;;;;;;;17.50;66.50;;;;;;10232078;28;94409;-60
2023/04/22 07:34:09;;;;;;;;;;;17.50;66.50;;;;;;10250137;28;93409;-61
2023/04/22 07:39:11;;;;;;;;;;;17.50;66.60;;;;;;10248500;28;97414;-60
2023/04/22 07:44:17;;;;;;;;;;;17.50;66.60;;;;;;10233195;28;94475;-60
2023/04/22 07:49:19;;;;;;;;;;;17.50;66.50;;;;;;10249355;28;93194;-60
2023/04/22 07:54:20;;;;;;;;;;;17.50;66.60;;;;;;10249446;28;93516;-61
2023/04/22 07:59:22;;;;;;;;;;;17.50;66.60;;;;;;10249722;28;93565;-60
2023/04/22 08:04:24;;;;;;;;;;;17.50;66.80;;;;;;10249686;28;93624;-60
2023/04/22 08:09:26;;;;;;;;;;;17.60;66.80;;;;;;10247220;28;92838;-61
2023/04/22 08:14:28;;;;;;;;;;;17.60;66.70;;;;;;10249995;28;92378;-61
2023/04/22 08:19:30;;;;;;;;;;;17.60;66.70;;;;;;10249222;28;94372;-61
2023/04/22 08:24:32;;;;;;;;;;;17.70;66.80;;;;;;10248353;28;93748;-61
2023/04/22 08:29:33;;;;;;;;;;;17.70;66.80;;;;;;10227304;28;95921;-61
2023/04/22 08:34:35;;;;;;;;;;;17.70;66.80;;;;;;10248542;28;94449;-62
2023/04/22 08:39:37;;;;;;;;;;;17.70;66.90;;;;;;10230338;28;93550;-61
2023/04/22 08:44:40;;;;;;;;;;;17.80;66.80;;;;;;10249457;28;93477;-61
2023/04/22 08:49:42;;;;;;;;;;;17.80;66.70;;;;;;10247210;28;93808;-61
2023/04/22 08:54:44;;;;;;;;;;;17.80;66.80;;;;;;10248674;28;94650;-62
2023/04/22 08:59:47;;;;;;;;;;;17.90;67.50;;;;;;10247271;28;93527;-61
2023/04/22 09:04:50;;;;;;;;;;;17.90;67.40;;;;;;10214603;28;92979;-60
2023/04/22 09:09:55;;;;;;;;;;;17.90;67.20;;;;;;10247228;28;94588;-60
2023/04/22 09:14:57;;;;;;;;;;;17.90;67.00;;;;;;10247587;28;93510;-60
2023/04/22 09:20:03;;;;;;;;;;;17.90;67.10;;;;;;10244059;28;96947;-60
2023/04/22 09:25:26;;;;;;;;;;;17.90;67.10;;;;;;10247162;28;94463;-60
2023/04/22 09:30:32;;;;;;;;;;;18.00;67.30;;;;;;10247062;28;94415;-61
2023/04/22 09:35:38;;;;;;;;;;;18.00;67.60;;;;;;10245785;28;93584;-61
2023/04/22 09:40:41;;;;;;;;;;;18.10;67.50;;;;;;10247115;28;94645;-59
2023/04/22 09:45:44;;;;;;;;;;;18.10;67.30;;;;;;10247301;28;93841;-59
2023/04/22 09:50:47;;;;;;;;;;;18.10;67.20;;;;;;10229967;28;94633;-59
2023/04/22 09:55:51;;;;;;;;;;;18.20;67.30;;;;;;10243341;28;92689;-59
2023/04/22 10:00:55;;;;;;;;;;;18.30;67.10;;;;;;10246960;28;93417;-58
2023/04/22 10:05:57;;;;;;;;;;;18.30;67.00;;;;;;10229235;28;92579;-58
2023/04/22 10:10:59;;;;;;;;;;;18.40;66.90;;;;;;10245581;28;96466;-59
2023/04/22 10:16:01;;;;;;;;;;;18.40;66.90;;;;;;10246365;28;95648;-59
2023/04/22 10:21:03;;;;;;;;;;;18.50;67.00;;;;;;10246644;28;95707;-59
2023/04/22 10:26:05;;;;;;;;;;;18.50;67.00;;;;;;10246030;28;94305;-59
2023/04/22 10:31:18;;;;;;;;;;;18.50;67.10;;;;;;10247951;28;94517;-59
2023/04/22 10:36:20;;;;;;;;;;;18.50;67.20;;;;;;10235171;28;94562;-59
2023/04/22 10:41:25;;;;;;;;;;;18.50;67.20;;;;;;10251735;28;94137;-58
2023/04/22 10:46:31;;;;;;;;;;;18.50;67.20;;;;;;10250371;28;93381;-65
2023/04/22 10:51:46;;;;;;;;;;;18.40;67.20;;;;;;10250951;28;94786;-64
2023/04/22 10:57:06;;;;;;;;;;;18.40;68.60;;;;;;10250228;28;112666;-64
2023/04/22 11:02:08;;;;;;;;;;;18.50;68.50;;;;;;10248541;28;95965;-64
2023/04/22 11:07:16;;;;;;;;;;;18.50;68.40;;;;;;10250321;28;94478;-64
2023/04/22 11:17:39;;;;;;;;;;;18.50;68.00;;;;;;10250699;28;93425;-63
2023/04/22 11:22:41;;;;;;;;;;;18.40;67.90;;;;;;10234346;28;97194;-64
2023/04/22 11:27:43;;;;;;;;;;;18.40;67.90;;;;;;10249325;28;92568;-64
2023/04/22 11:32:46;;;;;;;;;;;18.30;67.90;;;;;;10250159;28;92540;-64
2023/04/22 11:38:08;;;;;;;;;;;18.30;68.00;;;;;;10249310;28;93002;-64
2023/04/22 11:43:10;;;;;;;;;;;18.30;68.10;;;;;;10249774;28;93521;-64
2023/04/22 11:48:13;;;;;;;;;;;18.30;68.20;;;;;;10230666;28;92958;-64
2023/04/22 11:53:16;;;;;;;;;;;18.30;68.20;;;;;;10246908;28;95848;-65
2023/04/22 11:58:25;;;;;;;;;;;18.20;68.10;;;;;;10249457;28;94420;-64
2023/04/22 12:03:28;;;;;;;;;;;18.20;68.10;;;;;;10249040;28;93835;-65
2023/04/22 12:08:35;;;;;;;;;;;18.20;68.10;;;;;;10249130;28;93349;-64
2023/04/22 12:13:37;;;;;;;;;;;18.20;68.10;;;;;;10248976;28;94785;-64
2023/04/22 12:18:39;;;;;;;;;;;18.10;68.10;;;;;;10247455;28;93693;-65
2023/04/22 12:23:47;;;;;;;;;;;18.10;68.10;;;;;;10249229;28;94449;-64
2023/04/22 12:28:50;;;;;;;;;;;18.10;68.10;;;;;;10248585;28;93791;-64
2023/04/22 12:33:52;;;;;;;;;;;18.10;68.10;;;;;;10248779;28;93822;-64
2023/04/22 12:38:54;;;;;;;;;;;18.00;68.00;;;;;;10230332;28;93488;-65
2023/04/22 12:43:56;;;;;;;;;;;18.00;68.10;;;;;;10245432;28;97084;-64
2023/04/22 12:48:58;;;;;;;;;;;18.00;68.00;;;;;;10229412;28;93357;-64
2023/04/22 12:54:00;;;;;;;;;;;18.00;68.30;;;;;;10247683;28;94245;-64
2023/04/22 12:59:02;;;;;;;;;;;17.90;68.40;;;;;;10247757;28;93638;-64
2023/04/22 13:04:04;;;;;;;;;;;17.90;68.50;;;;;;10247511;28;94455;-64
2023/04/22 13:09:07;;;;;;;;;;;17.90;68.70;;;;;;10247737;28;94838;-64
2023/04/22 13:14:09;;;;;;;;;;;17.80;68.80;;;;;;10246785;28;94434;-64
2023/04/22 13:19:10;;;;;;;;;;;17.80;68.80;;;;;;10247650;28;93572;-65
2023/04/22 13:24:12;;;;;;;;;;;17.80;69.10;;;;;;10247370;28;93195;-64
2023/04/22 13:29:14;;;;;;;;;;;17.80;69.10;;;;;;10247356;28;93257;-65
2023/04/22 13:34:16;;;;;;;;;;;17.80;69.10;;;;;;10226590;28;95822;-65
2023/04/22 13:39:17;;;;;;;;;;;17.80;69.20;;;;;;10248031;28;94252;-64
2023/04/22 13:44:19;;;;;;;;;;;17.80;68.90;;;;;;10247500;28;94648;-65
2023/04/22 13:49:21;;;;;;;;;;;17.70;69.00;;;;;;10246393;28;93974;-64
2023/04/22 13:54:23;;;;;;;;;;;17.80;68.90;;;;;;10248406;28;94499;-64
2023/04/22 13:59:24;;;;;;;;;;;17.80;68.80;;;;;;10247542;28;93951;-64
2023/04/22 14:04:26;;;;;;;;;;;17.80;68.80;;;;;;10246121;28;93458;-64
2023/04/22 14:09:28;;;;;;;;;;;17.80;68.70;;;;;;10253263;28;92928;-64
2023/04/22 14:14:30;;;;;;;;;;;17.80;68.70;;;;;;10252845;28;94297;-64
2023/04/22 14:19:32;;;;;;;;;;;17.80;68.70;;;;;;10235699;28;93445;-64
2023/04/22 14:24:34;;;;;;;;;;;17.80;68.60;;;;;;10250126;28;96920;-64
2023/04/22 14:29:36;;;;;;;;;;;17.80;69.00;;;;;;10252133;28;93716;-64
2023/04/22 14:34:38;;;;;;;;;;;17.80;68.60;;;;;;10251883;28;93872;-64
2023/04/22 14:39:39;;;;;;;;;;;17.80;68.60;;;;;;10251928;28;94453;-65
2023/04/22 14:44:42;;;;;;;;;;;17.80;68.60;;;;;;10252265;28;94204;-64
2023/04/22 14:49:44;;;;;;;;;;;17.80;68.40;;;;;;10251197;28;94289;-64
2023/04/22 14:54:46;;;;;;;;;;;17.90;68.70;;;;;;10250948;28;93535;-64
2023/04/22 14:59:49;;;;;;;;;;;17.90;68.90;;;;;;10251496;28;93459;-64
2023/04/22 15:04:52;;;;;;;;;;;17.90;68.90;;;;;;10233782;28;93307;-63
2023/04/22 15:09:54;;;;;;;;;;;17.90;69.00;;;;;;10250777;28;93652;-63
2023/04/22 15:14:56;;;;;;;;;;;18.00;70.50;;;;;;10246419;28;95439;-64
2023/04/22 15:19:58;;;;;;;;;;;18.10;70.80;;;;;;10250680;28;93324;-60
2023/04/22 15:25:00;;;;;;;;;;;18.30;71.60;;;;;;10251738;28;94574;-62
2023/04/22 15:30:03;;;;;;;;;;;18.40;72.90;;;;;;10233267;28;93605;-58
2023/04/22 15:35:06;;;;;;;;;;;18.60;72.40;;;;;;10250527;28;94568;-60
2023/04/22 15:40:08;;;;;;;;;;;18.70;71.40;;;;;;10250793;28;94741;-62
2023/04/22 15:45:10;;;;;;;;;;;19.00;71.20;;;;;;10232099;28;95138;-61
2023/04/22 15:50:12;;;;;;;;;;;19.10;69.90;;;;;;10250004;28;93643;-61
2023/04/22 15:55:14;;;;;;;;;;;19.20;69.70;;;;;;10231725;28;93515;-61
2023/04/22 16:00:15;;;;;;;;;;;19.20;69.60;;;;;;10248715;28;94203;-61
2023/04/22 16:05:17;;;;;;;;;;;19.30;70.00;;;;;;10244600;28;96817;-61
2023/04/22 16:10:19;;;;;;;;;;;19.40;69.40;;;;;;10249272;28;93659;-61
2023/04/22 16:15:22;;;;;;;;;;;19.40;69.10;;;;;;10248102;28;92762;-61
2023/04/22 16:20:24;;;;;;;;;;;19.40;69.20;;;;;;10248889;28;94277;-61
2023/04/22 16:25:26;;;;;;;;;;;19.30;69.20;;;;;;10248127;28;93620;-61
2023/04/22 16:30:28;;;;;;;;;;;19.20;69.60;;;;;;10247890;28;93482;-61
2023/04/22 16:35:30;;;;;;;;;;;19.10;69.80;;;;;;10249034;28;93236;-61
2023/04/22 16:40:32;;;;;;;;;;;19.00;70.10;;;;;;10232292;28;92544;-61
2023/04/22 16:45:34;;;;;;;;;;;18.90;70.20;;;;;;10247996;28;93465;-61
2023/04/22 16:50:37;;;;;;;;;;;18.90;70.30;;;;;;10205444;28;93547;-61
2023/04/22 16:55:39;;;;;;;;;;;18.80;70.40;;;;;;10206638;28;96836;-61
2023/04/22 17:00:41;;;;;;;;;;;18.80;70.60;;;;;;10207062;28;94261;-61
2023/04/22 17:05:42;;;;;;;;;;;18.70;70.60;;;;;;10208269;28;94440;-61
2023/04/22 17:10:45;;;;;;;;;;;18.70;70.70;;;;;;10207510;28;94459;-61
2023/04/22 17:15:46;;;;;;;;;;;18.70;70.80;;;;;;10206193;28;93557;-62
2023/04/22 17:20:48;;;;;;;;;;;18.60;70.70;;;;;;10207771;28;93586;-61
2023/04/22 17:25:50;;;;;;;;;;;18.60;70.70;;;;;;10207056;28;94583;-61
2023/04/22 17:30:52;;;;;;;;;;;18.60;70.70;;;;;;10206677;28;93816;-61
2023/04/22 17:35:53;;;;;;;;;;;18.60;70.80;;;;;;10206909;28;94473;-61
2023/04/22 17:40:55;;;;;;;;;;;18.50;70.80;;;;;;10209164;28;94262;-61
2023/04/22 17:45:57;;;;;;;;;;;18.50;70.60;;;;;;10210539;28;97021;-61
2023/04/22 17:51:00;;;;;;;;;;;18.50;70.60;;;;;;10210557;28;93613;-61
2023/04/22 17:56:02;;;;;;;;;;;18.50;70.70;;;;;;10211258;28;93529;-61
2023/04/22 18:01:04;;;;;;;;;;;18.50;70.80;;;;;;10213101;28;93241;-61
2023/04/22 18:06:06;;;;;;;;;;;18.50;70.80;;;;;;10212637;28;93509;-61
2023/04/22 18:11:08;;;;;;;;;;;18.50;70.80;;;;;;10213252;28;94283;-61
2023/04/22 18:16:10;;;;;;;;;;;18.50;70.70;;;;;;10212577;28;93530;-62
2023/04/22 18:21:11;;;;;;;;;;;18.50;70.50;;;;;;10214576;28;92805;-60
2023/04/22 18:26:13;;;;;;;;;;;18.50;70.40;;;;;;10212219;28;93536;-60
2023/04/22 18:31:15;;;;;;;;;;;18.50;70.40;;;;;;10212292;28;94521;-61
2023/04/22 18:36:17;;;;;;;;;;;18.40;70.20;;;;;;10208756;28;95312;-61
2023/04/22 18:41:19;;;;;;;;;;;18.40;70.20;;;;;;10213853;28;94587;-61
2023/04/22 18:46:21;;;;;;;;;;;18.40;70.30;;;;;;10212475;28;93508;-60
2023/04/22 18:51:22;;;;;;;;;;;18.40;70.30;;;;;;10246511;28;93479;-61
2023/04/22 18:56:24;;;;;;;;;;;18.40;70.20;;;;;;10252563;28;93433;-61
2023/04/22 19:01:26;;;;;;;;;;;18.30;70.10;;;;;;10251080;28;94763;-60
2023/04/22 19:06:28;;;;;;;;;;;18.30;70.00;;;;;;10251062;28;94663;-61
2023/04/22 19:11:30;;;;;;;;;;;18.30;69.90;;;;;;10233565;28;93877;-61
2023/04/22 19:16:32;;;;;;;;;;;18.30;70.00;;;;;;10234472;28;94187;-61
2023/04/22 19:21:34;;;;;;;;;;;18.20;69.90;;;;;;10252041;28;93425;-61
2023/04/22 19:26:36;;;;;;;;;;;18.20;70.00;;;;;;10248434;28;95490;-62
2023/04/22 19:31:37;;;;;;;;;;;18.20;70.00;;;;;;10251511;28;94325;-62
2023/04/22 19:36:39;;;;;;;;;;;18.20;70.00;;;;;;10249477;28;93677;-61
2023/04/22 19:41:41;;;;;;;;;;;18.20;69.90;;;;;;10248974;28;93561;-61
2023/04/22 19:46:43;;;;;;;;;;;18.10;69.90;;;;;;10250767;28;94612;-61
2023/04/22 19:51:45;;;;;;;;;;;18.10;69.90;;;;;;10250285;28;93988;-61
2023/04/22 19:56:47;;;;;;;;;;;18.10;69.90;;;;;;10248733;28;94009;-61
2023/04/22 20:01:49;;;;;;;;;;;18.10;69.90;;;;;;10250125;28;93111;-61
2023/04/22 20:06:52;;;;;;;;;;;18.10;69.90;;;;;;10247042;28;93579;-62
2023/04/22 20:11:54;;;;;;;;;;;18.10;69.90;;;;;;10249949;28;94834;-61
2023/04/22 20:16:55;;;;;;;;;;;18.10;69.80;;;;;;10229420;28;96866;-61
2023/04/22 20:21:58;;;;;;;;;;;18.00;69.80;;;;;;10248659;28;93370;-61
2023/04/22 20:27:00;;;;;;;;;;;18.00;69.80;;;;;;10231977;28;93735;-61
2023/04/22 20:32:05;;;;;;;;;;;18.00;69.80;;;;;;10230022;28;94856;-61
2023/04/22 20:37:09;;;;;;;;;;;18.00;69.80;;;;;;10247333;28;94910;-61
2023/04/22 20:42:10;;;;;;;;;;;18.00;69.80;;;;;;10247756;28;94467;-61
2023/04/22 20:47:13;;;;;;;;;;;18.00;69.70;;;;;;10247187;28;93140;-61
2023/04/22 20:52:15;;;;;;;;;;;18.00;69.60;;;;;;10249137;28;93345;-61
2023/04/22 20:57:17;;;;;;;;;;;18.00;69.50;;;;;;10247671;28;93495;-61
2023/04/22 21:02:20;;;;;;;;;;;18.00;69.50;;;;;;10248045;28;94714;-61
2023/04/22 21:07:23;;;;;;;;;;;18.00;69.40;;;;;;10244375;28;95872;-61
2023/04/22 21:12:25;;;;;;;;;;;18.00;69.40;;;;;;10247414;28;93462;-61
2023/04/22 21:17:29;;;;;;;;;;;18.00;69.40;;;;;;10228331;28;93435;-61
2023/04/22 21:22:31;;;;;;;;;;;18.00;69.30;;;;;;10247160;28;93850;-61
2023/04/22 21:27:33;;;;;;;;;;;18.00;69.20;;;;;;10246723;28;94312;-62
2023/04/22 21:32:39;;;;;;;;;;;18.00;69.20;;;;;;10245527;28;94460;-61
2023/04/22 21:37:41;;;;;;;;;;;18.00;69.10;;;;;;10245902;28;93921;-61
2023/04/22 21:42:42;;;;;;;;;;;18.00;68.90;;;;;;10229510;28;93443;-61
2023/04/22 21:47:44;;;;;;;;;;;18.00;68.60;;;;;;10245766;28;94366;-61
2023/04/22 21:52:46;;;;;;;;;;;17.90;68.30;;;;;;10247070;28;94437;-61
2023/04/22 21:57:47;;;;;;;;;;;17.90;68.20;;;;;;10242995;28;95866;-61
2023/04/22 22:02:49;;;;;;;;;;;17.90;68.10;;;;;;10245852;28;93333;-61
2023/04/22 22:07:51;;;;;;;;;;;17.80;67.90;;;;;;10247282;28;93767;-61
2023/04/22 22:12:53;;;;;;;;;;;17.80;68.00;;;;;;10228278;28;93541;-61
2023/04/22 22:17:55;;;;;;;;;;;17.80;68.00;;;;;;10245062;28;93271;-61
2023/04/22 22:22:56;;;;;;;;;;;17.80;67.90;;;;;;10246074;28;94487;-61
2023/04/22 22:27:58;;;;;;;;;;;17.80;67.80;;;;;;10248040;28;94766;-61
2023/04/22 22:33:00;;;;;;;;;;;17.70;67.70;;;;;;10253385;28;92748;-61
2023/04/22 22:38:02;;;;;;;;;;;17.70;67.50;;;;;;10233838;28;93453;-61
2023/04/22 22:43:04;;;;;;;;;;;17.70;67.40;;;;;;10234172;28;94234;-62
2023/04/22 22:48:05;;;;;;;;;;;17.70;67.40;;;;;;10230475;28;96093;-61
2023/04/22 22:53:07;;;;;;;;;;;17.70;67.20;;;;;;10252385;28;93197;-61
2023/04/22 22:58:09;;;;;;;;;;;17.70;67.10;;;;;;10234265;28;94337;-61
2023/04/22 23:03:11;;;;;;;;;;;17.70;67.00;;;;;;10250466;28;93478;-61
2023/04/22 23:08:13;;;;;;;;;;;17.60;66.90;;;;;;10251451;28;94507;-61
2023/04/22 23:13:15;;;;;;;;;;;17.60;66.90;;;;;;10250750;28;94088;-61
2023/04/22 23:18:17;;;;;;;;;;;17.60;66.90;;;;;;10249388;28;93255;-61
2023/04/22 23:23:19;;;;;;;;;;;17.60;66.90;;;;;;10251803;28;92709;-61
2023/04/22 23:28:21;;;;;;;;;;;17.60;66.80;;;;;;10233327;28;93750;-61
2023/04/22 23:33:24;;;;;;;;;;;17.60;66.70;;;;;;10250336;28;93308;-61
2023/04/22 23:38:26;;;;;;;;;;;17.50;66.70;;;;;;10247382;28;95857;-61
2023/04/22 23:43:28;;;;;;;;;;;17.50;66.70;;;;;;10250360;28;93353;-61
2023/04/22 23:48:30;;;;;;;;;;;17.50;66.70;;;;;;10250962;28;94449;-61
2023/04/22 23:53:32;;;;;;;;;;;17.50;66.70;;;;;;10232542;28;93352;-61
2023/04/22 23:58:34;;;;;;;;;;;17.50;66.70;;;;;;10248045;28;93796;-61
